createdAt,value
2023-01-29T00:02:13.175Z,18.00
2023-01-29T00:04:41.093Z,19.63
2023-01-29T00:07:09.133Z,18.03
2023-01-29T00:09:38.312Z,18.70
2023-01-29T00:12:07.437Z,19.53
2023-01-29T00:14:35.375Z,18.10
2023-01-29T00:17:03.263Z,15.83
2023-01-29T00:19:31.165Z,17.87
2023-01-29T00:21:59.236Z,20.27
2023-01-29T00:24:28.586Z,20.20
2023-01-29T00:26:58.141Z,23.57
2023-01-29T00:29:27.274Z,18.93
2023-01-29T00:31:55.230Z,20.67
2023-01-29T00:34:23.818Z,16.67
2023-01-29T00:36:51.766Z,20.43
2023-01-29T00:39:31.369Z,17.23
2023-01-29T00:42:23.932Z,16.30
2023-01-29T00:45:00.745Z,16.93
2023-01-29T00:47:33.331Z,13.40
2023-01-29T00:50:01.709Z,15.10
2023-01-29T00:52:30.328Z,15.63
2023-01-29T00:54:59.958Z,13.90
2023-01-29T00:57:31.480Z,15.53
2023-01-29T00:59:59.425Z,16.20
2023-01-29T01:02:45.095Z,13.57
2023-01-29T01:05:17.823Z,16.00
2023-01-29T01:07:46.773Z,12.83
2023-01-29T01:10:22.181Z,14.60
2023-01-29T01:12:55.096Z,14.90
2023-01-29T01:15:24.342Z,15.67
2023-01-29T01:17:56.291Z,14.33
2023-01-29T01:20:24.362Z,14.10
2023-01-29T01:22:54.186Z,13.50
2023-01-29T01:25:22.660Z,12.50
2023-01-29T01:27:55.558Z,14.10
2023-01-29T01:30:24.317Z,17.00
2023-01-29T01:32:52.200Z,12.50
2023-01-29T01:35:20.175Z,12.03
2023-01-29T01:37:48.117Z,12.20
2023-01-29T01:40:19.445Z,12.23
2023-01-29T01:42:49.691Z,11.87
2023-01-29T01:45:25.800Z,11.27
2023-01-29T01:47:57.502Z,12.73
2023-01-29T01:50:30.756Z,11.60
2023-01-29T01:53:04.072Z,11.13
2023-01-29T01:55:34.597Z,12.40
2023-01-29T01:58:09.834Z,12.60
2023-01-29T02:00:40.223Z,12.23
2023-01-29T02:03:27.048Z,14.33
2023-01-29T02:06:14.471Z,12.10
2023-01-29T02:09:05.922Z,11.90
2023-01-29T02:11:37.240Z,9.03
2023-01-29T02:14:05.430Z,10.40
2023-01-29T02:16:36.405Z,11.87
2023-01-29T02:19:09.555Z,11.00
2023-01-29T02:22:03.500Z,13.10
2023-01-29T02:25:10.605Z,11.43
2023-01-29T02:28:12.685Z,12.63
2023-01-29T02:30:45.544Z,10.87
2023-01-29T02:33:23.026Z,13.10
2023-01-29T02:36:00.313Z,9.47
2023-01-29T02:38:36.871Z,11.97
2023-01-29T02:41:09.676Z,10.10
2023-01-29T02:43:47.339Z,10.23
2023-01-29T02:46:22.216Z,11.47
2023-01-29T02:48:58.412Z,10.67
2023-01-29T02:51:35.245Z,11.13
2023-01-29T02:54:08.515Z,10.43
2023-01-29T02:56:41.213Z,11.77
2023-01-29T02:59:16.253Z,9.37
2023-01-29T03:01:49.418Z,12.57
2023-01-29T03:04:23.751Z,7.53
2023-01-29T03:06:58.141Z,10.23
2023-01-29T03:09:31.571Z,10.47
2023-01-29T03:12:20.024Z,9.57
2023-01-29T03:15:08.876Z,11.37
2023-01-29T03:17:42.101Z,9.23
2023-01-29T03:20:16.206Z,9.40
2023-01-29T03:22:50.484Z,10.90
2023-01-29T03:25:39.127Z,8.73
2023-01-29T03:28:28.528Z,10.47
2023-01-29T03:31:20.266Z,8.57
2023-01-29T03:33:59.270Z,6.97
2023-01-29T03:36:38.217Z,9.23
2023-01-29T03:39:06.834Z,8.80
2023-01-29T03:41:39.367Z,9.70
2023-01-29T03:44:15.932Z,9.40
2023-01-29T03:46:52.644Z,7.23
2023-01-29T03:49:28.782Z,8.70
2023-01-29T03:52:02.613Z,7.97
2023-01-29T03:54:40.575Z,8.10
2023-01-29T03:57:16.441Z,12.53
2023-01-29T03:59:52.918Z,8.13
2023-01-29T04:02:51.889Z,6.90
2023-01-29T04:05:24.191Z,7.43
2023-01-29T04:08:21.711Z,8.40
2023-01-29T04:10:53.871Z,9.23
2023-01-29T04:13:24.382Z,8.20
2023-01-29T04:15:59.236Z,10.37
2023-01-29T04:18:49.515Z,8.83
2023-01-29T04:21:23.256Z,6.50
2023-01-29T04:23:51.179Z,8.30
2023-01-29T04:26:42.105Z,9.80
2023-01-29T04:29:27.830Z,8.73
2023-01-29T04:32:05.877Z,9.20
2023-01-29T04:34:49.329Z,11.03
2023-01-29T04:37:23.098Z,10.50
2023-01-29T04:39:57.468Z,10.40
2023-01-29T04:42:32.581Z,9.30
2023-01-29T04:45:07.363Z,8.67
2023-01-29T04:47:42.822Z,9.20
2023-01-29T04:50:19.504Z,7.33
2023-01-29T04:52:57.244Z,7.57
2023-01-29T04:55:32.365Z,8.43
2023-01-29T04:58:06.617Z,8.70
2023-01-29T05:00:39.383Z,9.00
2023-01-29T05:03:09.696Z,6.57
2023-01-29T05:05:42.726Z,9.33
2023-01-29T05:08:14.646Z,8.83
2023-01-29T05:10:43.449Z,6.17
2023-01-29T05:13:14.948Z,8.67
2023-01-29T05:15:47.487Z,7.77
2023-01-29T05:18:15.482Z,8.50
2023-01-29T05:20:45.560Z,6.73
2023-01-29T05:23:17.367Z,8.50
2023-01-29T05:25:46.423Z,9.00
2023-01-29T05:28:16.464Z,7.10
2023-01-29T05:30:45.909Z,7.30
2023-01-29T05:33:15.961Z,8.57
2023-01-29T05:35:45.503Z,6.37
2023-01-29T05:38:13.693Z,6.17
2023-01-29T05:40:41.953Z,6.83
2023-01-29T05:43:16.515Z,8.83
2023-01-29T05:45:44.637Z,6.90
2023-01-29T05:48:12.512Z,6.20
2023-01-29T05:50:40.349Z,6.23
2023-01-29T05:53:10.417Z,5.87
2023-01-29T05:55:38.319Z,6.80
2023-01-29T05:58:06.251Z,6.37
2023-01-29T06:00:34.105Z,9.83
2023-01-29T06:03:02.084Z,6.50
2023-01-29T06:05:30.085Z,7.03
2023-01-29T06:07:57.925Z,6.23
2023-01-29T06:10:27.200Z,6.73
2023-01-29T06:12:55.077Z,8.20
2023-01-29T06:15:22.967Z,7.30
2023-01-29T06:17:50.821Z,8.47
2023-01-29T06:20:19.120Z,6.60
2023-01-29T06:22:47.370Z,7.23
2023-01-29T06:25:15.407Z,6.17
2023-01-29T06:27:44.645Z,7.80
2023-01-29T06:30:13.549Z,6.70
2023-01-29T06:32:41.416Z,6.97
2023-01-29T06:35:10.788Z,7.37
2023-01-29T06:37:38.684Z,7.40
2023-01-29T06:40:07.734Z,6.23
2023-01-29T06:42:36.216Z,7.83
2023-01-29T06:45:06.317Z,5.87
2023-01-29T06:47:34.169Z,7.00
2023-01-29T06:50:02.203Z,7.30
2023-01-29T06:52:30.197Z,7.33
2023-01-29T06:54:59.168Z,7.77
2023-01-29T06:57:29.854Z,6.30
2023-01-29T06:59:57.712Z,5.50
2023-01-29T07:02:27.067Z,6.40
2023-01-29T07:04:54.968Z,7.77
2023-01-29T07:07:22.816Z,4.83
2023-01-29T07:09:50.656Z,5.63
2023-01-29T07:12:18.605Z,6.63
2023-01-29T07:14:46.906Z,5.80
2023-01-29T07:17:14.763Z,6.30
2023-01-29T07:19:43.920Z,6.17
2023-01-29T07:22:11.756Z,5.57
2023-01-29T07:24:39.662Z,6.03
2023-01-29T07:27:07.801Z,5.43
2023-01-29T07:29:35.762Z,5.10
2023-01-29T07:32:03.665Z,6.73
2023-01-29T07:34:32.129Z,6.13
2023-01-29T07:37:01.413Z,4.73
2023-01-29T07:39:29.311Z,4.30
2023-01-29T07:41:57.158Z,5.83
2023-01-29T07:44:28.973Z,6.67
2023-01-29T07:46:56.905Z,7.73
2023-01-29T07:49:24.904Z,5.10
2023-01-29T07:51:52.732Z,6.03
2023-01-29T07:54:21.913Z,6.10
2023-01-29T07:56:49.870Z,7.17
2023-01-29T07:59:17.734Z,5.73
2023-01-29T08:01:45.610Z,8.40
2023-01-29T08:04:13.437Z,5.50
2023-01-29T08:06:41.396Z,5.27
2023-01-29T08:09:09.365Z,6.47
2023-01-29T08:11:38.739Z,4.70
2023-01-29T08:14:06.705Z,4.50
2023-01-29T08:16:34.657Z,6.43
2023-01-29T08:19:03.255Z,4.00
2023-01-29T08:21:31.133Z,4.80
2023-01-29T08:26:27.362Z,4.70
2023-01-29T08:28:56.665Z,6.10
2023-01-29T08:31:24.601Z,5.57
2023-01-29T08:33:54.408Z,4.80
2023-01-29T08:36:22.838Z,5.60
2023-01-29T08:38:50.685Z,4.63
2023-01-29T08:41:18.550Z,5.37
2023-01-29T08:43:46.587Z,5.73
2023-01-29T08:46:15.910Z,9.50
2023-01-29T08:48:43.737Z,6.23
2023-01-29T08:51:11.590Z,8.00
2023-01-29T08:53:39.467Z,5.57
2023-01-29T08:56:07.800Z,5.70
2023-01-29T08:58:35.604Z,5.37
2023-01-29T09:01:07.844Z,5.67
2023-01-29T09:03:37.165Z,5.70
2023-01-29T09:06:05.477Z,6.17
2023-01-29T09:08:33.347Z,4.87
2023-01-29T09:11:01.293Z,6.60
2023-01-29T09:13:29.248Z,5.77
2023-01-29T09:16:00.190Z,6.17
2023-01-29T09:18:28.326Z,4.90
2023-01-29T09:20:58.145Z,5.43
2023-01-29T09:23:26.304Z,4.93
2023-01-29T09:25:54.150Z,6.27
2023-01-29T09:28:22.069Z,4.90
2023-01-29T09:30:50.226Z,5.80
2023-01-29T09:33:19.598Z,5.23
2023-01-29T09:35:47.869Z,8.63
2023-01-29T09:38:17.670Z,6.13
2023-01-29T09:40:55.961Z,5.43
2023-01-29T09:43:28.864Z,6.60
2023-01-29T09:46:01.179Z,5.30
2023-01-29T09:48:34.528Z,5.90
2023-01-29T09:51:09.592Z,5.37
2023-01-29T09:53:44.410Z,6.13
2023-01-29T09:56:15.365Z,5.63
2023-01-29T09:58:44.688Z,6.50
2023-01-29T10:01:16.966Z,5.80
2023-01-29T10:04:08.479Z,8.70
2023-01-29T10:06:48.816Z,8.57
2023-01-29T10:10:00.189Z,5.33
2023-01-29T10:12:54.618Z,5.03
2023-01-29T10:15:39.688Z,5.23
2023-01-29T10:18:30.205Z,6.53
2023-01-29T10:21:07.988Z,6.67
2023-01-29T10:23:39.692Z,6.87
2023-01-29T10:26:11.830Z,6.47
2023-01-29T10:28:45.975Z,6.77
2023-01-29T10:31:19.375Z,5.80
2023-01-29T10:34:02.496Z,5.33
2023-01-29T10:36:37.781Z,5.83
2023-01-29T10:39:05.632Z,6.17
2023-01-29T10:41:58.588Z,6.67
2023-01-29T10:44:39.537Z,7.93
2023-01-29T10:47:21.309Z,6.10
2023-01-29T10:50:10.381Z,8.20
2023-01-29T10:52:57.245Z,6.17
2023-01-29T10:55:42.674Z,6.57
2023-01-29T10:58:23.776Z,5.93
2023-01-29T11:00:53.322Z,6.50
2023-01-29T11:03:28.226Z,5.90
2023-01-29T11:06:05.115Z,5.73
2023-01-29T11:08:38.358Z,7.73
2023-01-29T11:11:10.393Z,7.70
2023-01-29T11:13:44.581Z,8.43
2023-01-29T11:16:12.536Z,6.67
2023-01-29T11:18:54.354Z,8.27
2023-01-29T11:21:22.907Z,6.47
2023-01-29T11:23:51.085Z,7.73
2023-01-29T11:26:22.226Z,6.50
2023-01-29T11:28:51.905Z,7.73
2023-01-29T11:31:23.625Z,9.03
2023-01-29T11:33:54.633Z,8.13
2023-01-29T11:36:32.760Z,6.97
2023-01-29T11:39:20.646Z,6.60
2023-01-29T11:41:50.926Z,6.60
2023-01-29T11:44:28.963Z,7.20
2023-01-29T11:46:58.647Z,7.20
2023-01-29T11:49:33.469Z,9.90
2023-01-29T11:52:04.004Z,7.97
2023-01-29T11:54:38.257Z,6.33
2023-01-29T11:57:06.531Z,6.40
2023-01-29T11:59:44.272Z,8.60
2023-01-29T12:02:22.224Z,7.70
2023-01-29T12:04:51.731Z,7.30
2023-01-29T12:07:20.653Z,8.73
2023-01-29T12:09:55.164Z,8.53
2023-01-29T12:12:39.930Z,9.37
2023-01-29T12:15:19.801Z,9.20
2023-01-29T12:17:54.801Z,7.57
2023-01-29T12:20:29.627Z,11.70
2023-01-29T12:23:06.073Z,11.60
2023-01-29T12:25:45.929Z,7.43
2023-01-29T12:28:30.026Z,7.47
2023-01-29T12:31:12.905Z,7.03
2023-01-29T12:33:49.388Z,8.17
2023-01-29T12:36:22.757Z,6.83
2023-01-29T12:38:50.847Z,8.57
2023-01-29T12:41:38.778Z,6.57
2023-01-29T12:44:16.562Z,9.13
2023-01-29T12:46:52.864Z,7.80
2023-01-29T12:49:25.812Z,7.20
2023-01-29T12:51:59.162Z,6.97
2023-01-29T12:54:34.787Z,9.07
2023-01-29T12:57:05.346Z,8.93
2023-01-29T12:59:40.606Z,6.90
2023-01-29T13:02:23.828Z,7.33
2023-01-29T13:04:58.432Z,7.10
2023-01-29T13:07:31.140Z,8.70
2023-01-29T13:10:08.299Z,6.73
2023-01-29T13:12:37.341Z,7.17
2023-01-29T13:15:18.533Z,7.37
2023-01-29T13:17:53.552Z,6.93
2023-01-29T13:20:27.467Z,8.20
2023-01-29T13:23:05.967Z,7.20
2023-01-29T13:25:33.900Z,8.97
2023-01-29T13:28:01.806Z,8.13
2023-01-29T13:30:31.712Z,6.63
2023-01-29T13:33:15.041Z,8.80
2023-01-29T13:35:46.871Z,10.03
2023-01-29T13:38:25.999Z,7.83
2023-01-29T13:40:57.358Z,6.70
2023-01-29T13:43:25.390Z,7.40
2023-01-29T13:45:55.329Z,7.17
2023-01-29T13:48:27.466Z,7.10
2023-01-29T13:50:57.470Z,7.73
2023-01-29T13:53:27.931Z,9.10
2023-01-29T13:55:56.215Z,8.70
2023-01-29T13:58:54.319Z,7.63
2023-01-29T14:01:52.047Z,7.20
2023-01-29T14:04:28.332Z,6.77
2023-01-29T14:06:57.500Z,8.60
2023-01-29T14:09:32.956Z,7.93
2023-01-29T14:12:01.566Z,6.60
2023-01-29T14:14:52.052Z,8.23
2023-01-29T14:17:21.635Z,7.53
2023-01-29T14:19:53.259Z,7.27
2023-01-29T14:22:23.653Z,8.63
2023-01-29T14:24:56.337Z,7.60
2023-01-29T14:27:26.363Z,7.43
2023-01-29T14:30:01.774Z,8.73
2023-01-29T14:32:30.453Z,8.13
2023-01-29T14:35:02.993Z,8.50
2023-01-29T14:37:35.348Z,8.57
2023-01-29T14:40:20.011Z,7.47
2023-01-29T14:42:57.636Z,7.90
2023-01-29T14:45:28.164Z,6.60
2023-01-29T14:48:04.856Z,8.10
2023-01-29T14:50:48.644Z,8.20
2023-01-29T14:53:23.996Z,8.13
2023-01-29T14:55:57.331Z,9.47
2023-01-29T14:58:34.002Z,10.20
2023-01-29T15:01:03.179Z,12.77
2023-01-29T15:03:42.369Z,10.60
2023-01-29T15:06:17.609Z,10.80
2023-01-29T15:08:51.795Z,15.67
2023-01-29T15:11:37.392Z,13.53
2023-01-29T15:14:14.357Z,11.10
2023-01-29T15:16:53.467Z,12.10
2023-01-29T15:19:28.352Z,11.83
2023-01-29T15:22:14.594Z,13.37
2023-01-29T15:24:43.943Z,11.50
2023-01-29T15:27:16.194Z,10.17
2023-01-29T15:29:48.240Z,10.87
2023-01-29T15:32:28.581Z,11.20
2023-01-29T15:34:58.179Z,15.33
2023-01-29T15:37:33.252Z,10.80
2023-01-29T15:40:02.502Z,11.57
2023-01-29T15:42:44.617Z,15.33
2023-01-29T15:45:27.373Z,14.63
2023-01-29T15:47:58.658Z,15.73
2023-01-29T15:50:26.686Z,13.20
2023-01-29T15:52:59.420Z,14.70
2023-01-29T15:55:28.875Z,15.83
2023-01-29T15:57:57.509Z,11.07
2023-01-29T16:00:29.707Z,17.00
2023-01-29T16:03:00.669Z,11.87
2023-01-29T16:05:33.893Z,12.77
2023-01-29T16:08:04.023Z,14.73
2023-01-29T16:10:34.065Z,14.23
2023-01-29T16:13:02.235Z,14.60
2023-01-29T16:15:33.954Z,12.23
2023-01-29T16:18:03.673Z,15.13
2023-01-29T16:20:36.413Z,16.80
2023-01-29T16:23:06.923Z,17.30
2023-01-29T16:25:38.506Z,18.23
2023-01-29T16:28:08.501Z,17.67
2023-01-29T16:30:36.490Z,15.17
2023-01-29T16:33:07.287Z,14.47
2023-01-29T16:35:36.810Z,15.83
2023-01-29T16:38:15.989Z,12.67
2023-01-29T16:41:11.260Z,18.87
2023-01-29T16:43:51.081Z,13.30
2023-01-29T16:46:22.587Z,13.87
2023-01-29T16:48:50.978Z,14.80
2023-01-29T16:51:25.481Z,13.63
2023-01-29T16:54:00.284Z,15.37
2023-01-29T16:56:31.279Z,15.80
2023-01-29T16:58:59.761Z,14.77
2023-01-29T17:01:30.988Z,12.93
2023-01-29T17:04:07.525Z,15.50
2023-01-29T17:06:36.726Z,12.40
2023-01-29T17:09:06.990Z,14.77
2023-01-29T17:11:38.492Z,15.73
2023-01-29T17:14:11.365Z,14.37
2023-01-29T17:16:50.731Z,18.97
2023-01-29T17:19:22.464Z,14.57
2023-01-29T17:21:50.549Z,13.77
2023-01-29T17:24:19.861Z,18.00
2023-01-29T17:26:47.867Z,16.07
2023-01-29T17:29:18.602Z,13.63
2023-01-29T17:31:46.775Z,14.13
2023-01-29T17:34:16.124Z,15.53
2023-01-29T17:36:44.635Z,17.43
2023-01-29T17:39:17.997Z,17.07
2023-01-29T17:41:49.357Z,13.70
2023-01-29T17:44:17.218Z,13.00
2023-01-29T17:46:46.190Z,12.37
2023-01-29T17:49:23.726Z,15.20
2023-01-29T17:51:52.817Z,12.23
2023-01-29T17:54:21.400Z,11.80
2023-01-29T17:56:51.753Z,13.67
2023-01-29T17:59:21.666Z,13.40
2023-01-29T18:01:50.688Z,13.00
2023-01-29T18:04:19.004Z,13.60
2023-01-29T18:06:49.135Z,15.60
2023-01-29T18:09:23.517Z,21.97
2023-01-29T18:11:53.420Z,18.03
2023-01-29T18:14:21.402Z,14.83
2023-01-29T18:16:49.356Z,14.60
2023-01-29T18:19:22.927Z,12.90
2023-01-29T18:21:52.492Z,14.37
2023-01-29T18:24:20.845Z,12.70
2023-01-29T18:26:49.009Z,18.07
2023-01-29T18:29:18.271Z,17.40
2023-01-29T18:31:49.283Z,18.07
2023-01-29T18:34:17.628Z,15.13
2023-01-29T18:36:47.680Z,16.33
2023-01-29T18:39:15.852Z,16.20
2023-01-29T18:41:48.353Z,47.13
2023-01-29T18:44:16.373Z,20.87
2023-01-29T18:46:45.681Z,62.53
2023-01-29T18:49:13.580Z,24.13
2023-01-29T18:51:41.557Z,20.80
2023-01-29T18:54:12.502Z,15.03
2023-01-29T18:57:11.601Z,13.83
2023-01-29T18:59:31.192Z,14.67
2023-01-29T19:02:00.951Z,15.37
2023-01-29T19:04:28.856Z,14.03
2023-01-29T19:06:58.331Z,17.63
2023-01-29T19:09:29.179Z,13.77
2023-01-29T19:11:57.109Z,13.03
2023-01-29T19:14:25.189Z,16.20
2023-01-29T19:16:53.147Z,12.80
2023-01-29T19:19:22.445Z,13.20
2023-01-29T19:21:53.085Z,16.07
2023-01-29T19:24:21.252Z,17.67
2023-01-29T19:26:49.917Z,16.27
2023-01-29T19:29:18.612Z,14.70
2023-01-29T19:31:46.722Z,17.00
2023-01-29T19:34:14.891Z,16.60
2023-01-29T19:36:44.065Z,15.27
2023-01-29T19:39:12.594Z,15.60
2023-01-29T19:41:41.687Z,16.83
2023-01-29T19:44:09.551Z,20.10
2023-01-29T19:46:38.508Z,19.17
2023-01-29T19:49:07.069Z,16.90
2023-01-29T19:51:34.911Z,21.40
2023-01-29T19:54:04.241Z,15.90
2023-01-29T19:56:32.683Z,17.83
2023-01-29T19:59:00.524Z,17.57
2023-01-29T20:01:31.047Z,16.80
2023-01-29T20:03:59.059Z,15.23
2023-01-29T20:06:28.556Z,15.53
2023-01-29T20:08:56.578Z,18.37
2023-01-29T20:11:26.231Z,19.20
2023-01-29T20:13:54.677Z,20.30
2023-01-29T20:16:22.992Z,18.73
2023-01-29T20:18:51.230Z,17.20
2023-01-29T20:21:22.054Z,23.03
2023-01-29T20:23:51.682Z,20.07
2023-01-29T20:26:21.472Z,19.90
2023-01-29T20:28:51.030Z,18.60
2023-01-29T20:31:18.986Z,19.93
2023-01-29T20:33:46.854Z,22.60
2023-01-29T20:36:14.852Z,20.47
2023-01-29T20:38:42.703Z,16.47
2023-01-29T20:41:13.932Z,23.07
2023-01-29T20:43:42.082Z,20.10
2023-01-29T20:46:12.093Z,19.17
2023-01-29T20:48:42.089Z,38.53
2023-01-29T20:51:15.175Z,26.33
2023-01-29T20:53:45.420Z,25.60
2023-01-29T20:56:15.081Z,18.47
2023-01-29T20:58:43.300Z,19.17
2023-01-29T21:01:15.011Z,17.77
2023-01-29T21:03:43.327Z,20.50
2023-01-29T21:06:12.537Z,19.67
2023-01-29T21:08:41.125Z,18.40
2023-01-29T21:11:10.002Z,24.20
2023-01-29T21:13:38.136Z,21.07
2023-01-29T21:16:06.726Z,21.73
2023-01-29T21:18:36.020Z,26.20
2023-01-29T21:21:04.872Z,25.30
2023-01-29T21:23:32.786Z,25.13
2023-01-29T21:26:04.782Z,25.00
2023-01-29T21:28:33.072Z,23.00
2023-01-29T21:31:05.344Z,22.33
2023-01-29T21:33:34.387Z,23.40
2023-01-29T21:36:04.294Z,20.97
2023-01-29T21:38:32.206Z,20.80
2023-01-29T21:41:01.222Z,20.30
2023-01-29T21:43:28.226Z,19.60
2023-01-29T21:45:57.184Z,20.70
2023-01-29T21:48:25.911Z,19.40
2023-01-29T21:50:54.146Z,18.27
2023-01-29T21:53:23.655Z,18.50
2023-01-29T21:55:51.771Z,19.10
2023-01-29T21:58:20.820Z,17.00
2023-01-29T22:00:49.566Z,16.20
2023-01-29T22:03:17.656Z,18.70
2023-01-29T22:05:45.604Z,13.40
2023-01-29T22:08:13.450Z,16.00
2023-01-29T22:10:42.786Z,17.80
2023-01-29T22:13:10.774Z,17.40
2023-01-29T22:15:38.718Z,20.80
2023-01-29T22:18:06.836Z,18.27
2023-01-29T22:20:36.686Z,17.60
2023-01-29T22:23:04.708Z,17.60
2023-01-29T22:25:33.475Z,21.33
2023-01-29T22:28:02.736Z,17.03
2023-01-29T22:30:30.661Z,16.53
2023-01-29T22:32:58.611Z,17.77
2023-01-29T22:35:26.498Z,18.87
2023-01-29T22:37:54.679Z,18.50
2023-01-29T22:40:22.663Z,18.53
2023-01-29T22:42:50.481Z,20.00
2023-01-29T22:45:19.856Z,25.07
2023-01-29T22:47:47.753Z,23.80
2023-01-29T22:50:15.831Z,20.70
2023-01-29T22:52:53.581Z,22.43
2023-01-29T22:55:21.878Z,22.10
2023-01-29T22:57:49.974Z,20.77
2023-01-29T23:00:20.429Z,31.30
2023-01-29T23:02:48.583Z,35.03
2023-01-29T23:05:17.246Z,32.70
2023-01-29T23:07:45.507Z,29.43
2023-01-29T23:10:14.997Z,31.47
2023-01-29T23:12:43.107Z,26.77
2023-01-29T23:15:11.253Z,33.03
2023-01-29T23:17:40.595Z,30.27
2023-01-29T23:20:09.907Z,30.37
2023-01-29T23:22:38.277Z,25.60
2023-01-29T23:25:06.940Z,24.70
2023-01-29T23:27:33.839Z,26.20
2023-01-29T23:30:01.669Z,30.60
2023-01-29T23:32:29.751Z,30.07
2023-01-29T23:34:59.041Z,31.13
2023-01-29T23:37:27.437Z,34.73
2023-01-29T23:39:55.348Z,33.77
2023-01-29T23:42:24.270Z,37.70
2023-01-29T23:44:52.164Z,30.23
2023-01-29T23:47:19.994Z,28.30
2023-01-29T23:49:47.797Z,52.60
2023-01-29T23:52:17.044Z,40.23
2023-01-29T23:54:44.916Z,34.90
2023-01-29T23:57:12.743Z,34.60
2023-01-29T23:59:40.648Z,28.47
